Belgium, WI (53004)

07:17 PM CST am 25. November 2014 (GMT -0600)
Silver Beach | Change Station
CLOSE
Current Station
Persönliche Wetterstationen
Location: Belgium, WI
Höhe: 614 ft
Wetterstationen in der Umgebung

Höhe 614 ft 43.51 °N, 87.79 °W | Updated 14 minutes ago

Bedeckt
Bedeckt
21.4 °F
gefühlte 21 °F
N
2.7
Wind Wechselnd Wind aus West-Nordwest

Heute
Max. -- | schwach -- °F
--% Regenrisiko
Gestern
Max. -- | schwach -- °F
Precip. -- inch
6:57 AM 4:18 PM
Erstes Viertel, 15% visible
Druck 30.12 inch
Sichtweite 10.0 Meilen
Wolken Bedeckt 1400 ft
Windchill 21 °F
Taupunkt 18 °F
Feuchtigkeit 88%
Regen 0.00 inch
Schneehöhe Nicht verfügbar..
UV 0 von 12
Pollen .10 von 12
Luftqualität Nicht verfügbar..
Flu Activity Nicht verfügbar..
METAR KETB 260055Z AUTO 25004KT 10SM OVC014 M06/M08 A3012 RMK AO2

More Conditions Fewer Conditions

Druck 30.12 inch
Sichtweite 10.0 Meilen
Wolken Bedeckt 1400 ft
Windchill 21 °F
Taupunkt 18 °F
Feuchtigkeit 88%
Regen 0.00 inch
Schneehöhe Nicht verfügbar..
UV 0 von 12
Pollen .10 von 12
Luftqualität Nicht verfügbar..
Flu Activity Nicht verfügbar..
METAR KETB 260055Z AUTO 25004KT 10SM OVC014 M06/M08 A3012 RMK AO2

More Conditions Fewer Conditions

10-Day Weather Forecast

Almanac

Astronomie

Nov. 25, 2014 Aufgang Untergang
Genaue Zeit
Bürgerliche Dämmerung
Nautische Dämmerung
Astronomische Dämmerung
Mond
Länge des sichtbaren Lichts
Tageslänge
Tomorrow will be .
, % of the Moon is Illuminated

Heutige Rekorde

State Highs State Lows

Community

WunderPhotos

Upload Photos

1,773,636 Fotos hochgeladen!

WunderBlogs® & News

Nearby

Luftqualität

  Luftqualität LQ Index Schadstoff
Not available.

Schneehöhe

Station Depth Höhe

Erdbebenaktivität

Stadt Distance Mag. Time & Date
Minimum magnitude displayed is 2.5.

küstennahe Wassertemperaturen

Ort Temperatur

Wetterstationen in der Umgebung